createdAt,value
2023-02-23T00:00:21.458Z,84.60
2023-02-23T00:01:27.029Z,85.10
2023-02-23T00:02:30.102Z,85.40
2023-02-23T00:03:33.756Z,86.00
2023-02-23T00:04:36.765Z,85.80
2023-02-23T00:05:40.563Z,85.80
2023-02-23T00:06:42.930Z,85.80
2023-02-23T00:07:47.755Z,85.40
2023-02-23T00:08:52.408Z,86.00
2023-02-23T00:09:58.874Z,86.30
2023-02-23T00:11:01.685Z,85.70
2023-02-23T00:12:08.799Z,85.80
2023-02-23T00:13:11.716Z,85.60
2023-02-23T00:14:15.658Z,84.10
2023-02-23T00:15:19.172Z,84.50
2023-02-23T00:16:25.634Z,84.10
2023-02-23T00:17:31.793Z,84.40
2023-02-23T00:18:45.183Z,84.50
2023-02-23T00:19:49.386Z,84.40
2023-02-23T00:20:59.801Z,83.60
2023-02-23T00:22:02.752Z,82.80
2023-02-23T00:23:06.712Z,83.20
2023-02-23T00:24:15.489Z,83.30
2023-02-23T00:25:20.120Z,83.10
2023-02-23T00:26:24.688Z,83.20
2023-02-23T00:27:28.712Z,83.30
2023-02-23T00:28:33.240Z,83.30
2023-02-23T00:29:40.507Z,83.00
2023-02-23T00:30:43.236Z,83.20
2023-02-23T00:31:47.965Z,82.80
2023-02-23T00:32:52.983Z,83.30
2023-02-23T00:33:58.379Z,83.40
2023-02-23T00:35:01.352Z,84.10
2023-02-23T00:36:06.683Z,83.80
2023-02-23T00:37:09.102Z,84.40
2023-02-23T00:38:12.960Z,83.80
2023-02-23T00:39:21.960Z,83.50
2023-02-23T00:40:26.706Z,84.00
2023-02-23T00:41:31.995Z,84.30
2023-02-23T00:42:35.923Z,84.00
2023-02-23T00:43:47.934Z,84.00
2023-02-23T00:44:52.175Z,84.50
2023-02-23T00:45:55.930Z,84.70
2023-02-23T00:46:59.603Z,84.60
2023-02-23T00:48:03.825Z,84.70
2023-02-23T00:49:07.972Z,84.70
2023-02-23T00:50:13.565Z,83.90
2023-02-23T00:51:19.191Z,83.80
2023-02-23T00:52:21.644Z,83.60
2023-02-23T00:53:27.694Z,83.90
2023-02-23T00:54:32.088Z,84.40
2023-02-23T00:55:35.697Z,84.70
2023-02-23T00:56:40.579Z,84.40
2023-02-23T00:57:44.119Z,84.80
2023-02-23T00:58:46.653Z,84.40
2023-02-23T00:59:50.763Z,84.60
2023-02-23T01:00:54.722Z,84.50
2023-02-23T01:01:58.751Z,84.40
2023-02-23T01:03:01.897Z,84.30
2023-02-23T01:04:06.649Z,84.50
2023-02-23T01:05:11.380Z,84.70
2023-02-23T01:06:17.180Z,84.60
2023-02-23T01:07:25.634Z,84.40
2023-02-23T01:08:33.926Z,84.70
2023-02-23T01:09:38.343Z,85.10
2023-02-23T01:10:43.467Z,85.00
2023-02-23T01:11:47.567Z,84.60
2023-02-23T01:12:53.791Z,84.40
2023-02-23T01:14:00.478Z,84.70
2023-02-23T01:15:04.487Z,85.10
2023-02-23T01:16:08.926Z,85.50
2023-02-23T01:17:12.414Z,85.70
2023-02-23T01:18:15.843Z,85.50
2023-02-23T01:19:19.747Z,85.80
2023-02-23T01:20:26.688Z,86.70
2023-02-23T01:21:35.254Z,87.40
2023-02-23T01:22:37.675Z,88.10
2023-02-23T01:23:41.934Z,87.60
2023-02-23T01:24:47.049Z,87.90
2023-02-23T01:25:50.644Z,87.90
2023-02-23T01:26:54.348Z,88.00
2023-02-23T01:27:58.037Z,88.00
2023-02-23T01:29:04.248Z,88.00
2023-02-23T01:30:10.247Z,87.90
2023-02-23T01:31:13.124Z,88.40
2023-02-23T01:32:17.427Z,88.40
2023-02-23T01:33:20.164Z,88.10
2023-02-23T01:34:24.169Z,88.60
2023-02-23T01:35:26.957Z,89.00
2023-02-23T01:36:34.106Z,89.40
2023-02-23T01:37:40.977Z,89.40
2023-02-23T01:38:45.391Z,89.00
2023-02-23T01:39:50.125Z,88.80
2023-02-23T01:40:54.146Z,89.10
2023-02-23T01:41:58.990Z,88.90
2023-02-23T01:43:13.511Z,88.70
2023-02-23T01:44:53.132Z,88.80
2023-02-23T01:45:58.871Z,89.40
2023-02-23T01:47:01.284Z,89.80
2023-02-23T01:48:12.517Z,89.90
2023-02-23T01:49:20.410Z,90.10
2023-02-23T01:50:26.918Z,90.40
2023-02-23T01:51:34.921Z,90.40
2023-02-23T01:52:40.096Z,90.60
2023-02-23T01:53:49.351Z,90.80
2023-02-23T01:54:56.635Z,90.70
2023-02-23T01:56:04.441Z,91.00
2023-02-23T01:57:12.457Z,91.10
2023-02-23T01:58:21.193Z,91.20
2023-02-23T01:59:28.640Z,91.30
2023-02-23T02:00:36.963Z,91.50
2023-02-23T02:01:45.588Z,91.70
2023-02-23T02:02:48.931Z,91.70
2023-02-23T02:03:58.869Z,91.80
2023-02-23T02:05:06.708Z,92.00
2023-02-23T02:06:14.848Z,92.20
2023-02-23T02:07:22.948Z,92.20
2023-02-23T02:08:29.010Z,92.30
2023-02-23T02:09:37.916Z,92.20
2023-02-23T02:10:47.022Z,92.30
2023-02-23T02:11:54.863Z,92.40
2023-02-23T02:12:59.947Z,92.70
2023-02-23T02:14:13.138Z,92.70
2023-02-23T02:15:18.196Z,92.90
2023-02-23T02:16:46.916Z,92.90
2023-02-23T02:18:04.112Z,92.90
2023-02-23T02:19:58.869Z,93.20
2023-02-23T02:21:52.109Z,93.30
2023-02-23T02:23:27.819Z,93.50
2023-02-23T02:25:12.855Z,93.50
2023-02-23T02:26:27.099Z,93.60
2023-02-23T02:28:04.296Z,93.60
2023-02-23T02:29:41.750Z,93.70
2023-02-23T02:31:42.641Z,93.70
2023-02-23T02:33:22.894Z,93.50
2023-02-23T02:35:12.492Z,93.80
2023-02-23T02:36:42.463Z,94.00
2023-02-23T02:38:05.499Z,94.30
2023-02-23T02:39:24.295Z,94.40
2023-02-23T02:40:38.248Z,94.50
2023-02-23T02:41:53.605Z,94.60
2023-02-23T02:43:08.911Z,94.50
2023-02-23T02:44:19.917Z,94.80
2023-02-23T02:45:32.386Z,95.10
2023-02-23T02:46:40.502Z,95.20
2023-02-23T02:47:56.717Z,95.40
2023-02-23T02:49:09.304Z,95.40
2023-02-23T02:50:19.805Z,95.30
2023-02-23T02:51:28.656Z,95.40
2023-02-23T02:52:37.536Z,95.40
2023-02-23T02:53:52.424Z,95.50
2023-02-23T02:55:03.399Z,95.70
2023-02-23T02:56:09.311Z,95.80
2023-02-23T02:57:14.316Z,95.90
2023-02-23T02:58:19.795Z,95.80
2023-02-23T02:59:40.401Z,95.90
2023-02-23T03:01:05.617Z,96.00
2023-02-23T03:02:32.210Z,96.30
2023-02-23T03:03:59.260Z,96.50
2023-02-23T03:05:20.393Z,96.70
2023-02-23T03:06:45.936Z,96.70
2023-02-23T03:08:18.149Z,96.80
2023-02-23T03:09:55.380Z,96.80
2023-02-23T03:11:24.486Z,96.70
2023-02-23T03:12:58.001Z,96.90
2023-02-23T03:14:36.112Z,97.30
2023-02-23T03:16:11.988Z,97.40
2023-02-23T03:17:46.875Z,97.30
2023-02-23T03:19:27.511Z,97.30
2023-02-23T03:21:01.169Z,97.50
2023-02-23T03:22:37.407Z,97.40
2023-02-23T03:24:10.447Z,97.50
2023-02-23T03:25:40.228Z,97.70
2023-02-23T03:27:11.537Z,97.80
2023-02-23T03:28:39.141Z,97.60
2023-02-23T03:30:12.585Z,97.80
2023-02-23T03:31:57.668Z,97.90
2023-02-23T03:33:28.831Z,98.00
2023-02-23T03:35:00.273Z,98.20
2023-02-23T03:36:28.933Z,98.20
2023-02-23T03:37:57.331Z,98.30
2023-02-23T03:39:29.718Z,98.40
2023-02-23T03:40:57.253Z,98.60
2023-02-23T03:42:24.974Z,98.90
2023-02-23T03:43:53.337Z,98.90
2023-02-23T03:45:18.209Z,98.70
2023-02-23T03:46:42.434Z,98.80
2023-02-23T03:48:05.989Z,98.60
2023-02-23T03:49:32.276Z,98.70
2023-02-23T03:50:59.349Z,98.60
2023-02-23T03:52:28.556Z,98.60
2023-02-23T03:53:58.257Z,98.70
2023-02-23T03:55:25.982Z,98.60
2023-02-23T03:56:54.399Z,98.70
2023-02-23T03:58:21.306Z,98.90
2023-02-23T03:59:48.855Z,99.10
2023-02-23T04:01:15.246Z,99.10
2023-02-23T04:02:39.281Z,98.80
2023-02-23T04:04:05.146Z,98.90
2023-02-23T04:05:35.302Z,98.90
2023-02-23T04:07:03.246Z,99.20
2023-02-23T04:08:31.203Z,99.40
2023-02-23T04:09:53.246Z,99.70
2023-02-23T04:11:30.969Z,99.70
2023-02-23T04:13:04.878Z,99.70
2023-02-23T04:14:16.032Z,99.70
2023-02-23T04:15:26.904Z,99.80
2023-02-23T04:16:32.475Z,99.90
2023-02-23T04:17:36.965Z,99.90
2023-02-23T04:18:40.342Z,99.90
2023-02-23T04:19:50.688Z,99.90
2023-02-23T04:20:53.753Z,99.90
2023-02-23T04:21:58.075Z,99.80
2023-02-23T04:23:00.907Z,99.90
2023-02-23T04:24:04.870Z,99.90
2023-02-23T04:25:09.067Z,99.90
2023-02-23T04:26:12.895Z,99.90
2023-02-23T04:27:15.954Z,99.90
2023-02-23T04:28:21.266Z,99.90
2023-02-23T04:29:26.871Z,99.90
2023-02-23T04:30:30.490Z,99.90
2023-02-23T04:31:32.913Z,99.90
2023-02-23T04:32:36.710Z,99.90
2023-02-23T04:33:40.836Z,99.90
2023-02-23T04:34:44.755Z,99.90
2023-02-23T04:35:47.497Z,99.90
2023-02-23T04:36:51.441Z,99.90
2023-02-23T04:37:54.100Z,99.90
2023-02-23T04:38:57.809Z,99.90
2023-02-23T04:40:00.588Z,99.90
2023-02-23T04:41:03.970Z,99.90
2023-02-23T04:42:06.989Z,99.90
2023-02-23T04:43:13.146Z,99.90
2023-02-23T04:44:17.470Z,99.90
2023-02-23T04:45:22.220Z,99.90
2023-02-23T04:46:24.892Z,99.90
2023-02-23T04:47:28.798Z,99.90
2023-02-23T04:48:31.547Z,99.90
2023-02-23T04:49:37.875Z,99.90
2023-02-23T04:50:40.705Z,99.90
2023-02-23T04:51:44.094Z,99.90
2023-02-23T04:52:47.647Z,99.90
2023-02-23T04:53:51.738Z,99.90
2023-02-23T04:54:54.367Z,99.90
2023-02-23T04:55:58.343Z,99.90
2023-02-23T04:57:00.786Z,99.90
2023-02-23T04:58:05.074Z,99.90
2023-02-23T04:59:07.785Z,99.90
2023-02-23T05:00:14.583Z,99.90
2023-02-23T05:01:17.613Z,99.90
2023-02-23T05:02:22.570Z,99.90
2023-02-23T05:03:25.353Z,99.90
2023-02-23T05:04:29.380Z,99.90
2023-02-23T05:05:32.551Z,99.90
2023-02-23T05:06:36.061Z,99.90
2023-02-23T05:07:39.664Z,99.90
2023-02-23T05:08:43.482Z,99.90
2023-02-23T05:09:45.820Z,99.90
2023-02-23T05:10:49.845Z,99.90
2023-02-23T05:11:52.910Z,99.90
2023-02-23T05:12:57.067Z,99.90
2023-02-23T05:14:02.821Z,99.90
2023-02-23T05:15:07.533Z,99.90
2023-02-23T05:16:13.896Z,99.90
2023-02-23T05:17:17.660Z,99.90
2023-02-23T05:18:22.287Z,99.90
2023-02-23T05:19:25.196Z,99.90
2023-02-23T05:20:31.106Z,99.90
2023-02-23T05:21:33.645Z,99.90
2023-02-23T05:22:37.176Z,99.90
2023-02-23T05:23:39.874Z,99.90
2023-02-23T05:24:44.180Z,99.90
2023-02-23T05:25:46.840Z,99.90
2023-02-23T05:26:50.675Z,99.90
2023-02-23T05:27:53.065Z,99.90
2023-02-23T05:28:57.286Z,99.90
2023-02-23T05:30:00.591Z,99.90
2023-02-23T05:31:05.451Z,99.90
2023-02-23T05:32:09.438Z,99.90
2023-02-23T05:33:15.451Z,99.90
2023-02-23T05:34:19.059Z,99.90
2023-02-23T05:35:22.954Z,99.90
2023-02-23T05:36:25.545Z,99.90
2023-02-23T05:37:29.164Z,99.90
2023-02-23T05:38:32.042Z,99.90
2023-02-23T05:39:38.502Z,99.90
2023-02-23T05:40:41.772Z,99.90
2023-02-23T05:41:45.470Z,99.90
2023-02-23T05:42:48.173Z,99.90
2023-02-23T05:43:53.797Z,99.90
2023-02-23T05:44:56.329Z,99.90
2023-02-23T05:46:01.620Z,99.90
2023-02-23T05:47:05.456Z,99.90
2023-02-23T05:48:10.194Z,99.90
2023-02-23T05:49:14.506Z,99.90
2023-02-23T05:50:18.098Z,99.90
2023-02-23T05:51:21.105Z,99.90
2023-02-23T05:52:25.082Z,99.90
2023-02-23T05:53:27.696Z,99.90
2023-02-23T05:54:31.753Z,99.90
2023-02-23T05:55:36.508Z,99.90
2023-02-23T05:56:39.966Z,99.90
2023-02-23T05:57:45.653Z,99.90
2023-02-23T05:58:49.679Z,99.90
2023-02-23T05:59:52.509Z,99.90
2023-02-23T06:00:56.540Z,99.90
2023-02-23T06:01:59.903Z,99.90
2023-02-23T06:03:03.715Z,99.90
2023-02-23T06:04:08.209Z,99.90
2023-02-23T06:05:14.432Z,99.90
2023-02-23T06:06:18.127Z,99.90
2023-02-23T06:07:21.759Z,99.90
2023-02-23T06:08:26.211Z,99.90
2023-02-23T06:09:29.872Z,99.90
2023-02-23T06:10:33.109Z,99.90
2023-02-23T06:11:36.864Z,99.90
2023-02-23T06:12:39.721Z,99.90
2023-02-23T06:13:43.361Z,99.90
2023-02-23T06:14:46.228Z,99.90
2023-02-23T06:15:50.862Z,99.90
2023-02-23T06:16:54.674Z,99.90
2023-02-23T06:17:57.389Z,99.90
2023-02-23T06:19:01.490Z,99.90
2023-02-23T06:20:07.641Z,99.90
2023-02-23T06:21:11.680Z,99.90
2023-02-23T06:22:14.575Z,99.90
2023-02-23T06:23:18.178Z,99.90
2023-02-23T06:24:21.656Z,99.90
2023-02-23T06:25:25.559Z,99.90
2023-02-23T06:26:28.814Z,99.90
2023-02-23T06:27:33.200Z,99.90
2023-02-23T06:28:36.755Z,99.90
2023-02-23T06:29:40.221Z,99.90
2023-02-23T06:30:42.781Z,99.90
2023-02-23T06:31:48.151Z,99.90
2023-02-23T06:32:50.752Z,99.90
2023-02-23T06:33:58.417Z,99.90
2023-02-23T06:35:01.788Z,99.90
2023-02-23T06:36:07.831Z,99.90
2023-02-23T06:37:10.640Z,99.90
2023-02-23T06:38:14.532Z,99.90
2023-02-23T06:39:17.989Z,99.90
2023-02-23T06:40:21.042Z,99.90
2023-02-23T06:41:24.959Z,99.90
2023-02-23T06:42:27.686Z,99.90
2023-02-23T06:43:31.221Z,99.90
2023-02-23T06:44:35.914Z,99.90
2023-02-23T06:45:40.937Z,99.90
2023-02-23T06:46:43.904Z,99.70
2023-02-23T06:47:47.888Z,99.70
2023-02-23T06:48:50.505Z,99.80
2023-02-23T06:49:55.053Z,99.80
2023-02-23T06:51:00.076Z,99.80
2023-02-23T06:52:06.365Z,99.70
2023-02-23T06:53:09.011Z,99.70
2023-02-23T06:54:12.771Z,99.80
2023-02-23T06:55:16.970Z,99.90
2023-02-23T06:56:20.796Z,99.90
2023-02-23T06:57:23.714Z,99.90
2023-02-23T06:58:27.917Z,99.70
2023-02-23T06:59:30.600Z,99.90
2023-02-23T07:00:34.755Z,99.80
2023-02-23T07:01:37.186Z,99.90
2023-02-23T07:02:40.946Z,99.90
2023-02-23T07:03:45.095Z,99.90
2023-02-23T07:04:48.314Z,99.70
2023-02-23T07:05:52.479Z,99.90
2023-02-23T07:06:54.885Z,99.90
2023-02-23T07:07:59.828Z,99.90
2023-02-23T07:09:03.598Z,99.90
2023-02-23T07:10:07.563Z,99.60
2023-02-23T07:11:13.672Z,99.40
2023-02-23T07:12:16.123Z,99.20
2023-02-23T07:13:20.513Z,99.10
2023-02-23T07:14:27.037Z,99.00
2023-02-23T07:15:30.891Z,98.70
2023-02-23T07:16:33.488Z,98.70
2023-02-23T07:17:37.749Z,98.70
2023-02-23T07:18:40.397Z,98.70
2023-02-23T07:19:44.142Z,98.60
2023-02-23T07:20:46.765Z,98.80
2023-02-23T07:21:50.396Z,98.30
2023-02-23T07:22:57.423Z,98.50
2023-02-23T07:24:03.451Z,98.60
2023-02-23T07:25:08.673Z,98.60
2023-02-23T07:26:16.288Z,98.40
2023-02-23T07:27:19.999Z,98.30
2023-02-23T07:28:23.189Z,98.40
2023-02-23T07:29:28.294Z,98.10
2023-02-23T07:30:31.953Z,98.00
2023-02-23T07:31:34.716Z,98.00
2023-02-23T07:32:38.645Z,97.80
2023-02-23T07:33:41.322Z,98.00
2023-02-23T07:34:46.124Z,98.30
2023-02-23T07:35:51.610Z,98.50
2023-02-23T07:36:54.466Z,98.60
2023-02-23T07:37:58.600Z,98.70
2023-02-23T07:39:03.615Z,98.60
2023-02-23T07:40:07.475Z,98.20
2023-02-23T07:41:18.725Z,97.90
2023-02-23T07:42:21.532Z,98.00
2023-02-23T07:43:25.518Z,98.00
2023-02-23T07:44:28.091Z,98.10
2023-02-23T07:45:31.823Z,98.00
2023-02-23T07:46:34.576Z,98.10
2023-02-23T07:47:39.618Z,98.20
2023-02-23T07:48:45.342Z,98.20
2023-02-23T07:49:48.847Z,98.30
2023-02-23T07:50:51.900Z,98.50
2023-02-23T07:51:55.633Z,98.50
2023-02-23T07:53:00.317Z,98.40
2023-02-23T07:54:05.744Z,98.20
2023-02-23T07:55:11.500Z,98.00
2023-02-23T07:56:14.424Z,97.50
2023-02-23T07:57:19.142Z,97.50
2023-02-23T07:58:22.376Z,97.30
2023-02-23T07:59:26.506Z,97.10
2023-02-23T08:00:29.372Z,97.10
2023-02-23T08:01:35.533Z,97.10
2023-02-23T08:02:39.318Z,96.90
2023-02-23T08:03:41.808Z,97.00
2023-02-23T08:04:46.412Z,97.00
2023-02-23T08:05:49.023Z,97.10
2023-02-23T08:06:52.974Z,96.80
2023-02-23T08:07:56.379Z,97.30
2023-02-23T08:09:01.673Z,97.30
2023-02-23T08:10:07.391Z,97.20
2023-02-23T08:11:10.980Z,96.50
2023-02-23T08:12:15.717Z,96.10
2023-02-23T08:13:19.843Z,95.60
2023-02-23T08:14:23.718Z,95.30
2023-02-23T08:15:28.586Z,95.50
2023-02-23T08:16:32.797Z,95.30
2023-02-23T08:17:36.850Z,95.50
2023-02-23T08:18:39.785Z,95.30
2023-02-23T08:19:45.645Z,95.30
2023-02-23T08:20:48.764Z,95.70
2023-02-23T08:21:52.782Z,95.40
2023-02-23T08:22:57.133Z,95.50
2023-02-23T08:24:01.391Z,95.60
2023-02-23T08:25:06.647Z,95.40
2023-02-23T08:26:10.554Z,95.10
2023-02-23T08:27:14.361Z,95.90
2023-02-23T08:28:18.047Z,95.50
2023-02-23T08:29:22.350Z,95.00
2023-02-23T08:30:26.448Z,94.90
2023-02-23T08:31:30.494Z,94.80
2023-02-23T08:32:35.689Z,94.80
2023-02-23T08:33:39.928Z,95.10
2023-02-23T08:34:44.942Z,95.30
2023-02-23T08:35:50.636Z,95.10
2023-02-23T08:36:54.235Z,95.20
2023-02-23T08:37:59.216Z,95.20
2023-02-23T08:39:02.498Z,95.20
2023-02-23T08:40:08.524Z,95.70
2023-02-23T08:41:11.914Z,95.60
2023-02-23T08:42:15.024Z,95.60
2023-02-23T08:43:18.749Z,95.40
2023-02-23T08:44:22.840Z,95.60
2023-02-23T08:45:25.361Z,95.60
2023-02-23T08:46:29.053Z,95.30
2023-02-23T08:47:34.702Z,94.70
2023-02-23T08:48:39.603Z,94.70
2023-02-23T08:49:43.383Z,94.60
2023-02-23T08:50:49.881Z,94.30
2023-02-23T08:51:53.032Z,94.10
2023-02-23T08:52:56.762Z,93.70
2023-02-23T08:54:00.534Z,93.60
2023-02-23T08:55:04.509Z,93.70
2023-02-23T08:56:10.375Z,93.70
2023-02-23T08:57:17.128Z,93.80
2023-02-23T08:58:20.217Z,93.80
2023-02-23T08:59:23.736Z,93.80
2023-02-23T09:00:27.797Z,94.00
2023-02-23T09:01:33.249Z,94.10
2023-02-23T09:02:37.376Z,94.10
2023-02-23T09:03:41.511Z,94.10
2023-02-23T09:04:46.689Z,94.80
2023-02-23T09:05:50.562Z,94.30
2023-02-23T09:06:54.549Z,94.10
2023-02-23T09:08:02.466Z,94.60
2023-02-23T09:09:06.171Z,94.30
2023-02-23T09:10:12.812Z,94.70
2023-02-23T09:11:18.384Z,95.30
2023-02-23T09:12:21.114Z,98.10
2023-02-23T09:13:25.393Z,97.00
2023-02-23T09:14:28.490Z,94.30
2023-02-23T09:15:32.522Z,93.10
2023-02-23T09:16:36.867Z,93.90
2023-02-23T09:17:53.471Z,94.00
2023-02-23T09:19:01.475Z,93.40
2023-02-23T09:20:05.428Z,96.80
2023-02-23T09:21:19.734Z,97.10
2023-02-23T09:22:22.399Z,93.30
2023-02-23T09:23:29.992Z,93.90
2023-02-23T09:24:33.499Z,93.90
2023-02-23T09:25:44.257Z,93.00
2023-02-23T09:26:49.485Z,92.80
2023-02-23T09:27:56.398Z,92.30
2023-02-23T09:29:03.336Z,94.30
2023-02-23T09:30:06.632Z,91.10
2023-02-23T09:31:12.101Z,92.40
2023-02-23T09:32:14.874Z,90.30
2023-02-23T09:33:18.412Z,92.50
2023-02-23T09:34:22.093Z,92.80
2023-02-23T09:35:26.498Z,91.10
2023-02-23T09:36:33.399Z,92.30
2023-02-23T09:37:36.537Z,91.20
2023-02-23T09:38:40.533Z,90.50
2023-02-23T09:39:45.916Z,89.50
2023-02-23T09:40:53.150Z,89.30
2023-02-23T09:42:11.926Z,92.70
2023-02-23T09:43:21.591Z,91.90
2023-02-23T09:44:41.144Z,99.80
2023-02-23T09:45:50.870Z,99.90
2023-02-23T09:47:11.569Z,98.90
2023-02-23T09:48:20.033Z,91.60
2023-02-23T09:49:29.991Z,92.70
2023-02-23T09:50:38.734Z,89.00
2023-02-23T09:51:48.679Z,90.30
2023-02-23T09:52:58.330Z,91.70
2023-02-23T09:54:05.430Z,90.70
2023-02-23T09:55:12.738Z,88.40
2023-02-23T09:56:26.134Z,88.30
2023-02-23T09:57:39.412Z,89.50
2023-02-23T09:58:43.541Z,90.00
2023-02-23T09:59:46.490Z,90.00
2023-02-23T10:01:05.120Z,90.70
2023-02-23T10:02:25.373Z,91.30
2023-02-23T10:03:35.976Z,90.80
2023-02-23T10:04:45.274Z,90.60
2023-02-23T10:05:56.235Z,91.00
2023-02-23T10:07:06.311Z,91.40
2023-02-23T10:08:27.270Z,90.90
2023-02-23T10:09:55.662Z,90.50
2023-02-23T10:11:13.151Z,90.30
2023-02-23T10:12:27.508Z,89.90
2023-02-23T10:13:47.942Z,89.20
2023-02-23T10:15:07.766Z,90.10
2023-02-23T10:16:20.541Z,90.30
2023-02-23T10:17:37.657Z,90.70
2023-02-23T10:18:51.530Z,90.50
2023-02-23T10:20:03.802Z,91.00
2023-02-23T10:21:12.175Z,90.80
2023-02-23T10:22:18.069Z,90.50
2023-02-23T10:23:31.327Z,90.50
2023-02-23T10:24:41.672Z,90.50
2023-02-23T10:25:51.181Z,90.00
2023-02-23T10:26:56.755Z,89.10
2023-02-23T10:28:03.817Z,88.80
2023-02-23T10:29:23.614Z,89.30
2023-02-23T10:30:30.613Z,89.70
2023-02-23T10:31:42.079Z,90.10
2023-02-23T10:32:53.540Z,90.00
2023-02-23T10:34:00.743Z,90.00
2023-02-23T10:35:13.297Z,90.00
2023-02-23T10:36:20.630Z,90.10
2023-02-23T10:37:25.988Z,90.60
2023-02-23T10:38:29.398Z,90.50
2023-02-23T10:39:35.349Z,90.50
2023-02-23T10:40:39.090Z,90.90
2023-02-23T10:41:43.403Z,89.40
2023-02-23T10:42:47.400Z,89.40
2023-02-23T10:43:50.089Z,89.30
2023-02-23T10:44:55.299Z,89.90
2023-02-23T10:45:59.750Z,89.20
2023-02-23T10:47:10.301Z,89.00
2023-02-23T10:48:20.069Z,89.00
2023-02-23T10:49:30.324Z,89.00
2023-02-23T10:50:37.069Z,89.50
2023-02-23T10:51:44.010Z,89.10
2023-02-23T10:52:49.541Z,88.50
2023-02-23T10:53:54.115Z,88.00
2023-02-23T10:54:56.740Z,87.70
2023-02-23T10:56:08.003Z,87.00
2023-02-23T10:57:14.539Z,87.40
2023-02-23T10:58:21.321Z,87.70
2023-02-23T10:59:28.792Z,87.40
2023-02-23T11:00:37.040Z,87.60
2023-02-23T11:02:01.988Z,88.20
2023-02-23T11:03:20.475Z,87.70
2023-02-23T11:04:26.743Z,87.40
2023-02-23T11:05:37.170Z,87.90
2023-02-23T11:06:44.622Z,87.80
2023-02-23T11:07:47.424Z,87.50
2023-02-23T11:08:53.137Z,87.40
2023-02-23T11:10:00.812Z,87.20
2023-02-23T11:11:20.649Z,87.30
2023-02-23T11:12:26.423Z,86.80
2023-02-23T11:13:36.526Z,86.90
2023-02-23T11:14:40.809Z,87.10
2023-02-23T11:15:50.691Z,88.10
2023-02-23T11:16:56.642Z,87.30
2023-02-23T11:18:01.118Z,87.50
2023-02-23T11:19:10.126Z,87.30
2023-02-23T11:20:28.166Z,86.90
2023-02-23T11:21:36.913Z,87.40
2023-02-23T11:22:42.758Z,87.30
2023-02-23T11:23:46.438Z,88.00
2023-02-23T11:24:49.833Z,88.20
2023-02-23T11:25:56.858Z,87.80
2023-02-23T11:27:07.034Z,87.80
2023-02-23T11:28:20.940Z,87.90
2023-02-23T11:29:35.423Z,88.70
2023-02-23T11:30:43.474Z,88.70
2023-02-23T11:31:55.726Z,88.90
2023-02-23T11:33:09.621Z,89.00
2023-02-23T11:34:24.508Z,89.10
2023-02-23T11:35:31.842Z,89.00
2023-02-23T11:36:36.961Z,89.80
2023-02-23T11:37:42.283Z,88.10
2023-02-23T11:38:47.565Z,87.80
2023-02-23T11:39:55.943Z,88.10
2023-02-23T11:41:00.851Z,88.50
2023-02-23T11:42:22.528Z,88.80
2023-02-23T11:43:25.032Z,88.50
2023-02-23T11:44:28.661Z,88.80
2023-02-23T11:45:39.644Z,89.10
2023-02-23T11:46:46.767Z,89.60
2023-02-23T11:47:55.858Z,91.80
2023-02-23T11:49:02.804Z,96.30
2023-02-23T11:50:08.594Z,92.30
2023-02-23T11:51:13.236Z,91.90
2023-02-23T11:52:21.159Z,90.50
2023-02-23T11:53:31.567Z,89.80
2023-02-23T11:54:38.607Z,89.30
2023-02-23T11:55:49.311Z,90.00
2023-02-23T11:56:55.442Z,89.20
2023-02-23T11:58:11.857Z,89.20
2023-02-23T11:59:22.728Z,89.60
2023-02-23T12:00:30.409Z,89.10
2023-02-23T12:01:45.700Z,88.60
2023-02-23T12:02:56.858Z,88.20
2023-02-23T12:04:01.150Z,88.00
2023-02-23T12:05:10.463Z,88.00
2023-02-23T12:06:13.189Z,86.60
2023-02-23T12:07:39.026Z,85.80
2023-02-23T12:08:48.874Z,85.30
2023-02-23T12:10:03.548Z,85.80
2023-02-23T12:11:14.528Z,86.20
2023-02-23T12:12:22.151Z,86.50
2023-02-23T12:13:40.160Z,86.40
2023-02-23T12:14:52.214Z,86.40
2023-02-23T12:16:02.637Z,87.40
2023-02-23T12:17:14.438Z,88.00
2023-02-23T12:18:39.491Z,87.70
2023-02-23T12:19:48.318Z,87.80
2023-02-23T12:20:55.848Z,87.10
2023-02-23T12:22:07.437Z,86.80
2023-02-23T12:23:15.469Z,87.00
2023-02-23T12:24:29.924Z,87.70
2023-02-23T12:25:41.586Z,87.50
2023-02-23T12:26:51.632Z,94.00
2023-02-23T12:28:17.865Z,89.70
2023-02-23T12:29:31.177Z,89.50
2023-02-23T12:30:44.916Z,90.60
2023-02-23T12:31:55.204Z,90.20
2023-02-23T12:33:05.114Z,88.10
2023-02-23T12:34:19.797Z,88.50
2023-02-23T12:35:31.004Z,87.10
2023-02-23T12:36:41.285Z,87.00
2023-02-23T12:37:51.622Z,92.30
2023-02-23T12:39:00.816Z,92.20
2023-02-23T12:40:24.741Z,93.00
2023-02-23T12:41:36.314Z,90.00
2023-02-23T12:42:46.884Z,89.50
2023-02-23T12:43:56.830Z,89.10
2023-02-23T12:45:06.655Z,88.20
2023-02-23T12:46:20.928Z,88.20
2023-02-23T12:47:35.870Z,88.10
2023-02-23T12:48:52.220Z,91.20
2023-02-23T12:50:07.628Z,89.40
2023-02-23T12:51:22.554Z,87.50
2023-02-23T12:52:33.105Z,86.50
2023-02-23T12:53:40.889Z,85.70
2023-02-23T12:54:47.338Z,86.20
2023-02-23T12:56:12.772Z,86.60
2023-02-23T12:57:29.021Z,86.70
2023-02-23T12:58:46.393Z,87.30
2023-02-23T13:00:31.848Z,86.40
2023-02-23T13:01:40.654Z,87.10
2023-02-23T13:02:50.437Z,88.00
2023-02-23T13:04:28.352Z,88.00
2023-02-23T13:05:39.701Z,88.00
2023-02-23T13:06:59.286Z,88.30
2023-02-23T13:08:22.450Z,88.60
2023-02-23T13:09:44.403Z,88.90
2023-02-23T13:10:56.713Z,88.50
2023-02-23T13:12:18.731Z,88.70
2023-02-23T13:13:33.911Z,88.20
2023-02-23T13:14:48.703Z,88.90
2023-02-23T13:16:02.690Z,89.10
2023-02-23T13:17:22.291Z,88.80
2023-02-23T13:18:32.929Z,89.70
2023-02-23T13:19:43.789Z,89.30
2023-02-23T13:20:55.563Z,89.40
2023-02-23T13:22:08.766Z,89.40
2023-02-23T13:23:23.463Z,89.40
2023-02-23T13:24:36.147Z,89.00
2023-02-23T13:25:52.302Z,89.30
2023-02-23T13:27:02.089Z,89.30
2023-02-23T13:28:15.642Z,89.00
2023-02-23T13:29:34.572Z,88.40
2023-02-23T13:30:42.647Z,88.60
2023-02-23T13:31:47.507Z,88.90
2023-02-23T13:32:51.255Z,89.70
2023-02-23T13:33:59.075Z,89.50
2023-02-23T13:35:05.054Z,90.10
2023-02-23T13:36:13.013Z,90.30
2023-02-23T13:37:27.596Z,90.00
2023-02-23T13:38:44.354Z,90.30
2023-02-23T13:40:00.955Z,89.70
2023-02-23T13:41:14.826Z,89.70
2023-02-23T13:42:49.707Z,90.00
2023-02-23T13:44:02.496Z,90.00
2023-02-23T13:45:28.812Z,90.00
2023-02-23T13:46:47.496Z,90.00
2023-02-23T13:47:58.499Z,90.20
2023-02-23T13:49:11.552Z,90.30
2023-02-23T13:50:24.160Z,90.20
2023-02-23T13:51:38.808Z,89.20
2023-02-23T13:52:44.051Z,88.90
2023-02-23T13:54:00.002Z,89.20
2023-02-23T13:55:04.478Z,89.30
2023-02-23T13:56:12.607Z,89.20
2023-02-23T13:57:17.449Z,89.30
2023-02-23T13:58:31.479Z,89.20
2023-02-23T13:59:44.026Z,89.30
2023-02-23T14:01:04.448Z,89.00
2023-02-23T14:02:33.323Z,88.90
2023-02-23T14:03:48.392Z,88.70
2023-02-23T14:04:52.743Z,89.40
2023-02-23T14:06:01.441Z,89.10
2023-02-23T14:07:23.024Z,89.50
2023-02-23T14:08:32.992Z,89.60
2023-02-23T14:09:43.041Z,89.60
2023-02-23T14:10:46.033Z,89.20
2023-02-23T14:11:53.781Z,89.40
2023-02-23T14:13:26.396Z,89.70
2023-02-23T14:14:44.943Z,89.10
2023-02-23T14:15:53.741Z,89.50
2023-02-23T14:17:40.992Z,89.30
2023-02-23T14:19:11.616Z,89.80
2023-02-23T14:20:30.023Z,88.90
2023-02-23T14:21:39.313Z,88.40
2023-02-23T14:23:28.031Z,88.90
2023-02-23T14:24:31.946Z,89.20
2023-02-23T14:25:47.304Z,89.40
2023-02-23T14:27:38.627Z,89.30
2023-02-23T14:28:46.242Z,89.50
2023-02-23T14:30:21.048Z,90.00
2023-02-23T14:31:26.262Z,90.00
2023-02-23T14:32:32.478Z,90.00
2023-02-23T14:33:47.293Z,90.10
2023-02-23T14:34:54.189Z,89.70
2023-02-23T14:35:57.727Z,89.10
2023-02-23T14:37:18.634Z,88.80
2023-02-23T14:38:47.152Z,89.60
2023-02-23T14:39:54.404Z,90.20
2023-02-23T14:40:57.322Z,90.10
2023-02-23T14:42:09.793Z,90.10
2023-02-23T14:43:49.544Z,90.20
2023-02-23T14:44:54.948Z,90.30
2023-02-23T14:45:59.198Z,90.10
2023-02-23T14:47:08.610Z,90.10
2023-02-23T14:48:15.870Z,89.70
2023-02-23T14:49:22.592Z,89.70
2023-02-23T14:50:29.987Z,89.80
2023-02-23T14:51:42.429Z,89.10
2023-02-23T14:52:47.663Z,88.80
2023-02-23T14:53:54.169Z,88.60
2023-02-23T14:55:17.862Z,89.00
2023-02-23T14:56:28.087Z,89.60